Time;durP1;ratioP1;P1;durP2;ratioP2;P2;SDS_P1;SDS_P2;PMS_P1;PMS_P2;Temp;Humidity;BMP_temperature;BMP_pressure;BME280_temperature;BME280_humidity;BME280_pressure;Samples;Min_cycle;Max_cycle;Signal;HPM_P1;HPM_P2
2022/02/24 00:00:51;;;;;;;17.77;6.57;;;4.10;92.60;;;3.95;67.26;101510.50;4995198;28;20195;-70
2022/02/24 00:03:20;;;;;;;11.82;4.63;;;4.10;92.70;;;3.83;67.55;101512.50;4995006;28;20666;-69
2022/02/24 00:05:49;;;;;;;11.07;4.93;;;3.90;94.60;;;4.06;67.28;101512.19;4977269;28;20246;-69
2022/02/24 00:08:17;;;;;;;13.52;5.47;;;4.00;94.60;;;4.05;67.27;101505.97;4994831;28;20230;-69
2022/02/24 00:10:48;;;;;;;11.77;4.78;;;4.00;94.90;;;3.83;67.60;101507.13;4994756;28;20723;-69
2022/02/24 00:13:17;;;;;;;9.80;5.78;;;3.90;94.90;;;3.73;67.55;101506.31;4994549;28;20555;-69
2022/02/24 00:15:45;;;;;;;11.55;4.53;;;3.80;95.60;;;3.77;67.64;101502.38;4994587;28;20212;-69
2022/02/24 00:18:14;;;;;;;12.77;5.22;;;3.80;96.70;;;3.93;67.13;101501.75;4994617;28;20266;-69
2022/02/24 00:20:42;;;;;;;13.35;5.75;;;3.80;95.80;;;3.88;67.44;101496.84;4994655;28;20206;-69
2022/02/24 00:23:11;;;;;;;5.50;3.97;;;3.90;95.20;;;3.90;67.16;101494.03;4994479;28;20190;-69
2022/02/24 00:25:39;;;;;;;10.95;5.85;;;3.90;95.00;;;3.90;67.29;101497.56;4994293;28;20223;-69
2022/02/24 00:28:09;;;;;;;10.20;5.20;;;3.90;95.20;;;3.74;67.17;101502.66;4994571;28;20190;-69
2022/02/24 00:30:38;;;;;;;10.38;5.20;;;3.80;94.60;;;3.73;67.55;101503.63;4994499;28;20445;-69
2022/02/24 00:33:10;;;;;;;12.05;4.88;;;3.80;95.70;;;3.69;67.73;101502.22;4993450;28;20259;-69
2022/02/24 00:35:38;;;;;;;12.50;5.03;;;3.70;96.40;;;3.74;67.57;101491.09;4994194;28;20297;-69
2022/02/24 00:38:07;;;;;;;10.23;4.45;;;3.70;96.70;;;3.60;68.08;101486.19;4993824;28;20195;-69
2022/02/24 00:40:35;;;;;;;6.85;5.10;;;3.60;96.90;;;3.65;68.07;101487.44;4976966;28;20807;-69
2022/02/24 00:43:04;;;;;;;7.90;4.50;;;3.60;98.70;;;3.57;67.88;101490.00;4994275;28;20191;-69
2022/02/24 00:45:33;;;;;;;11.52;4.70;;;3.60;97.70;;;3.46;68.27;101485.63;4995078;28;20226;-68
2022/02/24 00:48:02;;;;;;;8.13;4.53;;;3.50;99.20;;;3.35;68.69;101484.94;4995155;28;20214;-68
2022/02/24 00:50:30;;;;;;;12.02;5.53;;;3.40;99.70;;;3.47;68.12;101494.50;4995396;28;20183;-69
2022/02/24 00:52:58;;;;;;;13.02;5.35;;;3.50;99.30;;;3.52;68.26;101488.72;4995644;28;20179;-70
2022/02/24 00:55:28;;;;;;;9.95;4.40;;;3.50;99.90;;;3.42;68.41;101486.06;4995722;28;20226;-69
2022/02/24 00:57:56;;;;;;;13.98;6.40;;;3.50;99.90;;;3.43;68.31;101483.25;4996305;28;20358;-70
2022/02/24 01:00:25;;;;;;;11.57;5.13;;;3.50;99.70;;;3.42;68.52;101476.22;4995472;28;20187;-70
2022/02/24 01:02:54;;;;;;;8.05;3.90;;;3.40;99.90;;;3.39;68.50;101472.94;4977855;28;20203;-69
2022/02/24 01:05:26;;;;;;;6.30;4.53;;;3.40;99.90;;;3.52;68.20;101464.66;4995117;28;20306;-69
2022/02/24 01:07:54;;;;;;;7.03;4.65;;;3.40;99.90;;;3.35;68.87;101463.53;4995463;28;20545;-70
2022/02/24 01:10:23;;;;;;;10.77;5.20;;;3.40;99.90;;;3.26;68.80;101459.03;4994051;28;20187;-70
2022/02/24 01:12:51;;;;;;;9.38;4.13;;;3.30;99.90;;;3.19;69.14;101457.91;4995726;28;20175;-69
2022/02/24 01:15:20;;;;;;;9.15;4.20;;;3.20;99.90;;;3.36;68.86;101459.88;4994997;28;20223;-69
2022/02/24 01:17:48;;;;;;;13.88;5.20;;;3.30;99.90;;;3.50;68.13;101446.06;4995207;28;20256;-69
2022/02/24 01:20:18;;;;;;;14.18;5.25;;;3.40;99.90;;;3.35;68.41;101442.13;4994852;28;20179;-69
2022/02/24 01:22:47;;;;;;;19.98;5.43;;;3.40;99.90;;;3.40;68.54;101445.22;4993952;28;20179;-69
2022/02/24 01:25:18;;;;;;;10.45;5.07;;;3.40;99.90;;;3.24;68.75;101432.44;4993473;28;20566;-68
2022/02/24 01:27:46;;;;;;;14.52;4.55;;;3.30;99.90;;;3.36;68.56;101427.75;4993913;28;20201;-69
2022/02/24 01:30:15;;;;;;;13.13;5.35;;;3.30;99.90;;;3.24;68.82;101423.56;4994046;28;20179;-70
2022/02/24 01:32:43;;;;;;;10.35;4.93;;;3.20;99.90;;;3.26;68.90;101416.22;4993651;28;20450;-69
2022/02/24 01:35:12;;;;;;;12.45;5.22;;;3.30;99.90;;;3.22;68.89;101409.47;4993329;28;20218;-69
2022/02/24 01:37:41;;;;;;;12.25;5.65;;;3.20;99.90;;;3.25;68.88;101412.69;4992079;28;20194;-69
2022/02/24 01:40:12;;;;;;;11.75;5.28;;;3.20;99.90;;;3.15;69.22;101409.19;4993314;28;20183;-70
2022/02/24 01:42:40;;;;;;;14.27;4.78;;;3.20;99.90;;;3.26;68.98;101410.88;4993179;28;20183;-70
2022/02/24 01:45:11;;;;;;;8.18;4.38;;;3.20;99.90;;;3.12;69.21;101411.31;4992801;28;20217;-69
2022/02/24 01:47:41;;;;;;;12.32;5.18;;;3.20;99.90;;;3.00;69.50;101410.63;4993565;28;20179;-70
2022/02/24 01:50:13;;;;;;;19.35;6.10;;;3.10;99.90;;;3.22;69.36;101428.19;4993329;28;20187;-69
2022/02/24 01:52:44;;;;;;;15.55;6.05;;;3.10;99.90;;;3.15;69.39;101409.19;4993144;28;20175;-69
2022/02/24 01:55:12;;;;;;;13.73;5.55;;;3.10;99.90;;;3.22;69.10;101404.13;4993342;28;20251;-69
2022/02/24 01:57:41;;;;;;;17.25;5.97;;;3.20;99.90;;;3.26;69.02;101401.03;4993612;28;20182;-69
2022/02/24 02:00:11;;;;;;;13.25;5.45;;;3.20;99.90;;;3.04;69.67;101398.66;4975905;28;20249;-70
2022/02/24 02:02:40;;;;;;;8.82;4.65;;;3.10;99.90;;;3.12;69.63;101389.91;4993804;28;20226;-69
2022/02/24 02:05:12;;;;;;;14.13;5.45;;;3.10;99.90;;;3.04;69.76;101396.00;4993904;28;20211;-69
2022/02/24 02:07:42;;;;;;;16.40;5.97;;;3.10;99.90;;;2.93;70.28;101388.09;4984056;28;20320;-77
2022/02/24 02:10:11;;;;;;;7.13;5.00;;;3.00;99.90;;;3.00;69.70;101378.53;4975059;28;20249;-77
2022/02/24 02:12:50;;;;;;;11.50;5.22;;;3.00;99.90;;;2.96;70.05;101372.63;4956243;29;20173;-75
2022/02/24 02:15:19;;;;;;;13.00;4.78;;;3.00;99.90;;;3.10;69.56;101357.16;4938095;29;20216;-77
2022/02/24 02:17:48;;;;;;;12.70;5.43;;;3.00;99.90;;;3.01;70.00;101353.47;4955641;29;20188;-76
2022/02/24 02:20:19;;;;;;;7.70;4.13;;;3.00;99.90;;;2.81;70.21;101347.28;4954879;28;20177;-75
2022/02/24 02:22:54;;;;;;;15.35;5.43;;;2.90;99.90;;;2.83;70.46;101339.13;4955804;29;20640;-76
2022/02/24 02:25:23;;;;;;;9.73;4.97;;;2.90;99.90;;;2.78;70.70;101344.06;4937912;29;20194;-76
2022/02/24 02:27:53;;;;;;;9.32;5.40;;;2.80;99.90;;;2.74;70.98;101330.16;4954773;29;20184;-77
2022/02/24 02:30:22;;;;;;;10.98;5.40;;;2.80;99.90;;;2.94;70.19;101331.81;4955324;28;20223;-77
2022/02/24 02:32:51;;;;;;;18.83;5.25;;;2.90;99.90;;;2.87;70.42;101336.03;4955752;29;20188;-76
2022/02/24 02:35:19;;;;;;;9.48;4.75;;;2.90;99.90;;;2.89;70.54;101330.56;4955313;29;20223;-77
2022/02/24 02:37:48;;;;;;;8.27;4.15;;;2.90;99.90;;;2.87;70.48;101333.38;4956490;29;20346;-77
2022/02/24 02:40:18;;;;;;;8.48;4.53;;;2.90;99.90;;;2.87;70.56;101336.03;4955364;28;20271;-79
2022/02/24 02:42:46;;;;;;;8.02;4.93;;;2.90;99.90;;;2.92;70.56;101339.13;4955025;29;20478;-77
2022/02/24 02:45:15;;;;;;;14.73;5.32;;;2.90;99.90;;;3.05;69.83;101328.97;4955037;29;20181;-77
2022/02/24 02:47:44;;;;;;;6.85;4.68;;;3.00;99.90;;;2.99;70.10;101318.88;4956115;29;20636;-77
2022/02/24 02:50:14;;;;;;;12.90;5.05;;;3.00;99.90;;;3.01;70.02;101316.88;4955031;28;20204;-77
2022/02/24 02:52:46;;;;;;;8.60;4.60;;;3.00;99.90;;;2.98;70.27;101319.00;4955242;29;20222;-77
2022/02/24 02:55:14;;;;;;;13.65;5.60;;;3.00;99.90;;;2.81;70.69;101299.19;4938371;29;20275;-77
2022/02/24 02:57:48;;;;;;;17.73;5.10;;;2.90;99.90;;;2.97;69.90;101302.13;4958611;29;20179;-77
2022/02/24 03:00:18;;;;;;;10.95;4.18;;;3.00;99.90;;;2.89;70.51;101307.34;4959215;28;20180;-78
2022/02/24 03:02:47;;;;;;;9.05;3.83;;;2.90;99.90;;;2.92;70.47;101291.00;4959741;29;20386;-78
2022/02/24 03:05:16;;;;;;;13.57;5.40;;;2.90;99.90;;;2.96;69.88;101287.06;4958561;29;20211;-77
2022/02/24 03:07:45;;;;;;;6.65;4.45;;;2.90;99.90;;;3.03;70.09;101280.16;4961143;29;20251;-77
2022/02/24 03:10:13;;;;;;;8.43;4.65;;;3.00;99.90;;;3.10;69.80;101274.25;4961130;28;20181;-77
2022/02/24 03:12:42;;;;;;;16.25;6.28;;;3.10;99.90;;;3.12;69.99;101258.88;4944512;29;20228;-77
2022/02/24 03:15:17;;;;;;;6.72;3.58;;;3.00;99.90;;;3.20;69.54;101250.97;4944276;29;20497;-77
2022/02/24 03:17:48;;;;;;;5.38;3.95;;;3.10;99.90;;;3.23;69.44;101256.03;4943135;29;20200;-77
2022/02/24 03:20:17;;;;;;;15.40;4.57;;;3.20;99.90;;;3.00;69.83;101251.03;4943967;28;20536;-77
2022/02/24 03:22:46;;;;;;;6.28;4.15;;;3.10;99.90;;;2.90;70.64;101250.22;4944560;29;20192;-77
2022/02/24 03:25:15;;;;;;;9.52;4.65;;;3.00;99.90;;;3.08;69.84;101249.47;4943669;29;20275;-77
2022/02/24 03:27:44;;;;;;;10.43;4.03;;;3.00;99.90;;;2.96;70.11;101248.78;4959414;29;20184;-77
2022/02/24 03:30:14;;;;;;;10.70;4.97;;;3.00;99.90;;;2.97;70.45;101251.31;4944425;28;20196;-77
2022/02/24 03:32:43;;;;;;;10.93;3.97;;;3.00;99.90;;;2.89;70.45;101243.19;4958320;29;20651;-77
2022/02/24 03:35:12;;;;;;;15.13;4.60;;;2.90;99.90;;;2.92;70.54;101247.41;4957904;29;20200;-78
2022/02/24 03:37:41;;;;;;;7.13;4.30;;;2.90;99.90;;;2.95;70.24;101242.59;4958294;29;20261;-77
2022/02/24 03:40:12;;;;;;;19.83;4.47;;;2.90;99.90;;;2.96;70.07;101246.97;4958038;28;20188;-77
2022/02/24 03:42:42;;;;;;;7.40;3.45;;;3.00;99.90;;;2.98;70.01;101236.97;4958553;29;20265;-76
2022/02/24 03:45:13;;;;;;;7.40;3.45;;;3.00;99.90;;;2.92;70.30;101228.69;4939750;29;20189;-77
2022/02/24 03:47:41;;;;;;;7.28;3.60;;;2.90;99.90;;;2.82;70.77;101231.38;4939977;29;20655;-78
2022/02/24 03:50:13;;;;;;;4.63;3.00;;;2.90;99.90;;;2.83;70.67;101221.53;4940073;28;20196;-77
2022/02/24 03:52:42;;;;;;;12.95;4.00;;;2.80;99.90;;;2.87;70.46;101223.78;4958349;29;20218;-78
2022/02/24 03:55:13;;;;;;;8.90;3.67;;;2.80;99.90;;;2.90;70.44;101211.97;4957550;29;20520;-78
2022/02/24 03:57:41;;;;;;;9.30;3.60;;;2.90;99.90;;;2.91;70.30;101224.31;4957748;29;20184;-77
2022/02/24 04:00:13;;;;;;;12.95;4.88;;;2.90;99.90;;;2.79;70.56;101218.31;4957219;28;20184;-77
2022/02/24 04:02:43;;;;;;;11.00;3.88;;;2.80;99.90;;;2.96;69.99;101209.53;4957906;29;20434;-76
2022/02/24 04:05:15;;;;;;;8.77;3.88;;;2.90;99.90;;;2.97;69.94;101210.38;4957420;28;20168;-78
2022/02/24 04:07:45;;;;;;;13.68;4.03;;;2.90;99.90;;;3.03;69.45;101205.31;4939745;29;20203;-78
2022/02/24 04:10:14;;;;;;;7.40;4.20;;;3.00;99.90;;;3.00;69.61;101200.22;4958246;28;20566;-77
2022/02/24 04:12:42;;;;;;;8.00;3.47;;;3.00;99.90;;;2.91;70.04;101198.44;4958464;29;20192;-77
2022/02/24 04:15:12;;;;;;;7.32;3.65;;;2.90;99.90;;;2.99;69.82;101192.38;4958157;29;20185;-76
2022/02/24 04:17:41;;;;;;;5.90;3.70;;;2.90;99.90;;;3.06;69.56;101194.31;4941091;29;20188;-77
2022/02/24 04:20:10;;;;;;;9.18;4.65;;;3.00;99.90;;;3.00;69.32;101180.69;4960106;28;20184;-78
2022/02/24 04:22:39;;;;;;;8.40;3.78;;;3.00;99.90;;;2.98;69.57;101182.66;4959050;29;20203;-78
2022/02/24 04:25:10;;;;;;;7.88;3.60;;;3.00;99.90;;;3.03;69.50;101186.59;4942589;29;20196;-77
2022/02/24 04:27:45;;;;;;;10.23;3.90;;;3.00;99.90;;;2.92;69.53;101178.72;4949994;29;20207;-77
2022/02/24 04:30:16;;;;;;;9.40;4.97;;;3.00;99.90;;;2.94;69.73;101175.94;4971084;28;20172;-77
2022/02/24 04:32:46;;;;;;;6.07;4.20;;;2.90;99.90;;;3.08;69.03;101170.09;4956512;29;20276;-77
2022/02/24 04:35:15;;;;;;;10.23;4.20;;;3.00;99.90;;;3.03;69.39;101165.19;4974122;29;20183;-77
2022/02/24 04:37:44;;;;;;;10.52;3.78;;;3.00;99.90;;;3.14;68.87;101176.69;4966061;29;20679;-77
2022/02/24 04:40:14;;;;;;;12.93;3.17;;;3.00;99.90;;;3.10;68.41;101164.63;4975660;28;20227;-76
2022/02/24 04:42:44;;;;;;;9.50;3.97;;;3.10;99.90;;;3.23;68.25;101165.09;4977531;28;20180;-76
2022/02/24 04:45:16;;;;;;;10.20;4.28;;;3.10;99.90;;;3.26;68.04;101159.44;4954851;29;20243;-77
2022/02/24 04:47:44;;;;;;;9.43;4.47;;;3.10;99.00;;;3.24;67.77;101161.44;4961733;29;20181;-78
2022/02/24 04:50:16;;;;;;;6.75;3.38;;;3.20;96.50;;;3.22;67.82;101158.06;4960958;28;20717;-77
2022/02/24 04:52:44;;;;;;;9.43;3.55;;;3.20;99.90;;;3.22;67.76;101153.56;4959256;29;20177;-78
2022/02/24 04:55:12;;;;;;;5.78;3.63;;;3.20;99.90;;;3.23;67.46;101151.75;4956706;29;20199;-76
2022/02/24 04:57:41;;;;;;;6.90;3.60;;;3.20;99.90;;;3.29;67.38;101143.13;4956524;29;20223;-77
2022/02/24 05:00:11;;;;;;;6.95;3.85;;;3.20;99.90;;;3.34;67.31;101144.34;4956240;28;20212;-77
2022/02/24 05:02:41;;;;;;;4.30;2.60;;;3.20;99.90;;;3.26;67.08;101144.25;4955781;29;20188;-77
2022/02/24 05:05:10;;;;;;;10.38;3.67;;;3.20;99.90;;;3.21;67.59;101130.47;4940833;29;20188;-78
2022/02/24 05:07:39;;;;;;;16.65;3.38;;;3.20;99.90;;;3.17;67.38;101128.25;4957967;29;20368;-77
2022/02/24 05:10:08;;;;;;;7.85;4.60;;;3.20;99.90;;;3.13;67.78;101116.19;4957667;29;20251;-77
2022/02/24 05:12:37;;;;;;;8.00;3.15;;;3.10;99.90;;;3.12;67.23;101115.31;4956571;29;20176;-77
2022/02/24 05:15:07;;;;;;;12.57;4.07;;;3.10;99.90;;;3.07;67.53;101125.63;4956514;29;20200;-77
2022/02/24 05:17:39;;;;;;;6.93;3.83;;;3.00;99.90;;;3.06;67.34;101127.47;4956802;29;20208;-77
2022/02/24 05:20:11;;;;;;;8.85;3.80;;;3.10;99.90;;;3.24;67.00;101124.84;4956558;28;20172;-77
2022/02/24 05:22:43;;;;;;;8.70;3.65;;;3.20;99.90;;;3.30;66.97;101118.03;4956906;29;20176;-77
2022/02/24 05:25:13;;;;;;;11.82;3.92;;;3.20;99.90;;;3.24;66.94;101124.00;4956292;29;20180;-76
2022/02/24 05:27:43;;;;;;;7.85;3.63;;;3.20;99.90;;;3.21;66.96;101119.78;4956623;29;20298;-76
2022/02/24 05:30:15;;;;;;;10.00;3.85;;;3.20;99.90;;;3.34;66.66;101119.44;4939110;28;20264;-77
2022/02/24 05:32:44;;;;;;;9.40;4.70;;;3.30;99.90;;;3.32;66.45;101121.41;4939570;29;20188;-78
2022/02/24 05:35:14;;;;;;;8.68;3.70;;;3.30;99.90;;;3.31;66.54;101120.56;4956083;29;20199;-77
2022/02/24 05:37:43;;;;;;;7.60;3.90;;;3.30;99.90;;;3.22;66.81;101118.78;4955549;29;20666;-77
2022/02/24 05:40:12;;;;;;;10.70;5.72;;;3.20;99.90;;;3.16;67.06;101107.84;4956940;28;20185;-77
2022/02/24 05:42:41;;;;;;;7.70;4.00;;;3.20;99.90;;;3.19;66.92;101110.25;4955631;29;20180;-77
2022/02/24 05:45:10;;;;;;;6.80;4.25;;;3.20;99.90;;;3.19;66.90;101094.19;4955655;29;20267;-77
2022/02/24 05:47:39;;;;;;;8.35;3.97;;;3.20;99.90;;;3.21;66.80;101095.72;4955683;29;20183;-77
2022/02/24 05:50:09;;;;;;;7.00;3.97;;;3.20;99.90;;;3.35;66.37;101100.56;4955008;29;20764;-76
2022/02/24 05:52:38;;;;;;;5.60;4.90;;;3.30;99.90;;;3.39;66.63;101082.34;4938314;29;20199;-77
2022/02/24 05:55:08;;;;;;;11.25;4.40;;;3.30;99.90;;;3.47;66.23;101088.66;4960130;29;20184;-79
2022/02/24 05:57:36;;;;;;;9.02;4.18;;;3.40;99.90;;;3.59;65.73;101091.09;4970883;29;20197;-77
2022/02/24 06:00:07;;;;;;;7.25;4.15;;;3.40;99.90;;;3.58;65.90;101092.09;4966032;29;20184;-78
2022/02/24 06:02:45;;;;;;;5.45;3.88;;;3.50;99.90;;;3.65;65.54;101096.69;4967121;29;20169;-77
2022/02/24 06:05:14;;;;;;;6.95;3.67;;;3.60;99.90;;;3.58;65.68;101095.63;4967848;29;20260;-77
2022/02/24 06:07:44;;;;;;;6.22;3.58;;;3.50;99.90;;;3.69;65.56;101097.22;4967362;29;20599;-78
2022/02/24 06:10:14;;;;;;;8.02;4.03;;;3.60;99.90;;;3.72;65.23;101087.06;4959823;28;20626;-78
2022/02/24 06:12:43;;;;;;;8.30;4.32;;;3.60;99.90;;;3.71;65.40;101085.38;4960425;29;20181;-79
2022/02/24 06:15:13;;;;;;;12.85;3.92;;;3.60;99.90;;;3.73;65.40;101079.84;4942195;29;20203;-79
2022/02/24 06:17:42;;;;;;;4.35;3.50;;;3.60;99.90;;;3.82;65.11;101074.44;4942428;29;20219;-79
2022/02/24 06:20:12;;;;;;;7.53;4.25;;;3.70;99.90;;;3.85;65.09;101081.31;4959358;28;20172;-81
2022/02/24 06:22:41;;;;;;;10.98;5.55;;;3.70;99.90;;;3.92;65.00;101075.16;4960129;29;20191;-77
2022/02/24 06:25:11;;;;;;;9.70;4.82;;;3.80;99.80;;;3.97;64.96;101079.25;4957292;29;20187;-78
2022/02/24 06:27:39;;;;;;;6.65;4.47;;;3.90;99.30;;;3.99;64.61;101072.72;4957478;29;20173;-78
2022/02/24 06:30:09;;;;;;;9.43;4.50;;;3.90;98.30;;;3.98;64.52;101065.69;4957791;29;20192;-77
2022/02/24 06:32:37;;;;;;;8.20;4.00;;;3.90;97.90;;;4.05;64.28;101061.41;4959186;29;20200;-79
2022/02/24 06:35:07;;;;;;;6.80;3.55;;;4.00;97.30;;;3.93;64.65;101063.47;4959499;29;20183;-78
2022/02/24 06:37:37;;;;;;;18.52;4.70;;;3.90;97.30;;;3.93;64.95;101058.13;4961190;29;20191;-78
2022/02/24 06:40:07;;;;;;;5.82;3.90;;;3.90;97.60;;;3.97;64.79;101052.47;4961123;29;20203;-81
2022/02/24 06:42:37;;;;;;;9.57;4.30;;;3.90;97.90;;;3.99;64.91;101058.50;4945049;29;20679;-81
2022/02/24 06:45:07;;;;;;;8.07;4.93;;;3.90;97.70;;;4.24;64.47;101055.00;4946473;29;20196;-81
2022/02/24 06:47:39;;;;;;;5.78;3.85;;;4.10;98.00;;;4.28;64.29;101048.31;4962821;29;20713;-81
2022/02/24 06:50:09;;;;;;;7.28;3.72;;;4.10;97.50;;;4.23;64.17;101032.72;4943844;29;20287;-81
2022/02/24 06:52:38;;;;;;;8.95;3.92;;;4.10;96.30;;;4.26;64.24;101036.94;4942969;29;20207;-81
2022/02/24 06:55:10;;;;;;;6.60;3.45;;;4.20;95.30;;;4.35;63.47;101031.47;4960672;29;20203;-83
2022/02/24 06:57:45;;;;;;;6.18;3.75;;;4.30;95.00;;;4.35;63.95;101030.63;4943420;29;20583;-82
2022/02/24 07:00:16;;;;;;;8.40;3.78;;;4.20;94.70;;;4.28;63.95;101034.94;4943265;28;20187;-80
2022/02/24 07:02:45;;;;;;;7.47;4.05;;;4.20;94.60;;;4.35;63.73;101025.28;4943384;29;20196;-81
2022/02/24 07:05:14;;;;;;;4.55;3.10;;;4.30;93.80;;;4.37;63.74;101029.47;4940103;29;20295;-81
2022/02/24 07:07:42;;;;;;;5.53;3.47;;;4.30;93.50;;;4.42;63.59;101037.03;4942340;29;20200;-81
2022/02/24 07:10:16;;;;;;;8.80;5.13;;;4.30;93.40;;;4.35;63.85;101033.31;4941309;28;20602;-81
2022/02/24 07:12:49;;;;;;;10.98;3.90;;;4.30;92.90;;;4.48;63.53;101017.63;4958693;29;20207;-82
2022/02/24 07:15:18;;;;;;;4.63;3.47;;;4.30;93.40;;;4.50;63.49;101018.31;4895067;28;20664;-80
2022/02/24 07:17:49;;;;;;;6.97;3.85;;;4.40;92.90;;;4.59;63.30;101016.53;4942769;29;20223;-81
2022/02/24 07:20:21;;;;;;;7.85;3.90;;;4.50;92.30;;;4.62;63.03;101011.66;4941597;28;20239;-81
2022/02/24 07:22:55;;;;;;;10.20;3.90;;;4.50;91.40;;;4.64;63.28;101020.41;4958155;29;20206;-83
2022/02/24 07:25:29;;;;;;;6.75;3.35;;;4.50;91.40;;;4.74;62.67;101020.28;4945994;29;20192;-80
2022/02/24 07:28:01;;;;;;;12.13;4.75;;;4.60;90.90;;;4.73;63.00;101013.22;4971002;28;20173;-81
2022/02/24 07:30:44;;;;;;;5.32;3.50;;;4.60;90.70;;;4.90;62.61;101014.94;4976620;28;20297;-81
2022/02/24 07:33:13;;;;;;;9.27;4.47;;;4.70;90.30;;;4.88;62.59;101021.50;4961088;28;20231;-82
2022/02/24 07:35:44;;;;;;;9.25;4.75;;;4.70;90.00;;;4.89;62.61;101012.47;4960211;28;20207;-81
2022/02/24 07:38:13;;;;;;;6.15;3.50;;;4.80;89.30;;;4.89;62.88;101012.47;4974686;28;20535;-82
2022/02/24 07:40:45;;;;;;;10.45;3.65;;;4.80;89.10;;;4.82;62.72;101010.41;4962508;28;20250;-82
2022/02/24 07:43:23;;;;;;;7.93;4.30;;;4.70;88.40;;;4.97;62.18;101009.78;4991689;28;20167;-82
2022/02/24 07:45:53;;;;;;;8.38;4.00;;;4.80;87.70;;;4.99;62.05;101010.44;4999695;28;20152;-82
2022/02/24 07:48:27;;;;;;;8.73;3.83;;;4.90;86.90;;;5.03;62.31;101015.34;4982517;28;20246;-81
2022/02/24 07:50:56;;;;;;;7.72;4.82;;;4.90;86.10;;;5.14;61.86;100998.94;4999198;28;20191;-81
2022/02/24 07:53:25;;;;;;;13.30;4.90;;;5.00;85.50;;;5.23;61.51;100995.25;4982004;28;20214;-81
2022/02/24 07:55:53;;;;;;;6.80;3.80;;;5.10;84.60;;;5.29;61.70;100988.38;4983148;28;20184;-80
2022/02/24 07:58:23;;;;;;;9.27;3.90;;;5.10;83.70;;;5.26;61.52;100975.31;4983471;28;20223;-81
2022/02/24 08:00:53;;;;;;;9.57;5.20;;;5.10;83.10;;;5.36;61.68;100961.75;4980400;28;20219;-80
2022/02/24 08:03:22;;;;;;;6.13;3.80;;;5.20;82.00;;;5.52;60.76;100967.09;4967222;28;20187;-80
2022/02/24 08:05:51;;;;;;;8.35;3.60;;;5.30;80.80;;;5.56;60.99;100963.94;4970239;28;20280;-79
2022/02/24 08:08:20;;;;;;;8.70;4.10;;;5.40;79.60;;;5.70;60.63;100957.03;4988240;28;20202;-80
2022/02/24 08:10:49;;;;;;;5.65;3.03;;;5.50;79.70;;;5.89;60.33;100942.44;4999547;28;20192;-80
2022/02/24 08:13:18;;;;;;;7.72;3.83;;;5.70;78.10;;;6.00;59.63;100944.78;4983866;28;20202;-78
2022/02/24 08:15:49;;;;;;;4.90;3.22;;;5.80;76.30;;;6.09;59.66;100943.75;4963625;28;20194;-80
2022/02/24 08:18:18;;;;;;;6.13;4.00;;;5.90;76.50;;;6.18;59.13;100926.59;4988293;28;20207;-81
2022/02/24 08:20:49;;;;;;;7.68;3.92;;;5.90;73.70;;;6.35;59.32;100927.34;4978387;28;20219;-81
2022/02/24 08:23:24;;;;;;;6.47;3.45;;;6.10;73.00;;;6.60;58.07;100928.94;4979003;28;20199;-82
2022/02/24 08:25:53;;;;;;;6.38;3.85;;;6.30;71.20;;;6.42;58.70;100928.34;4963062;29;20195;-82
2022/02/24 08:28:25;;;;;;;7.53;3.83;;;6.30;69.20;;;6.52;58.53;100924.44;4974263;28;20196;-81
2022/02/24 08:30:55;;;;;;;6.20;3.53;;;6.40;68.50;;;6.50;58.66;100904.94;4945089;29;20655;-83
2022/02/24 08:33:26;;;;;;;6.20;3.33;;;6.30;67.20;;;6.58;57.99;100900.56;4963606;29;20236;-85
2022/02/24 08:35:56;;;;;;;8.25;4.45;;;6.40;65.10;;;6.38;58.84;100894.78;4955383;29;20227;-84
2022/02/24 08:38:27;;;;;;;7.15;3.45;;;6.30;63.30;;;6.39;58.95;100893.78;4981549;28;20211;-85
2022/02/24 08:41:15;;;;;;;5.90;4.20;;;6.30;62.90;;;6.52;58.76;100897.56;4956480;29;20251;-84
2022/02/24 08:43:44;;;;;;;6.72;3.47;;;6.30;63.20;;;6.53;58.99;100891.16;4982987;28;20184;-81
2022/02/24 08:46:15;;;;;;;11.73;4.18;;;6.30;61.90;;;6.46;58.96;100882.13;4978301;28;20187;-82
2022/02/24 08:48:45;;;;;;;6.00;3.65;;;6.30;62.30;;;6.49;58.98;100887.13;4995455;28;20187;-81
2022/02/24 08:51:14;;;;;;;10.50;4.47;;;6.30;60.60;;;6.41;58.96;100873.75;4962536;28;20204;-82
2022/02/24 08:53:43;;;;;;;8.68;3.97;;;6.30;59.90;;;6.50;59.09;100871.84;4964628;28;20259;-84
2022/02/24 08:56:15;;;;;;;12.20;4.50;;;6.40;60.30;;;6.91;58.68;100869.75;4991748;28;20215;-80
2022/02/24 08:58:43;;;;;;;11.05;4.22;;;6.60;62.50;;;7.07;57.91;100872.31;4968099;29;20216;-81
2022/02/24 09:01:14;;;;;;;6.63;3.72;;;6.80;59.80;;;7.20;57.45;100858.28;4968231;28;20318;-83
2022/02/24 09:03:44;;;;;;;9.35;3.78;;;6.90;59.30;;;7.50;57.03;100861.88;4980948;28;20298;-83
2022/02/24 09:06:16;;;;;;;11.77;5.20;;;7.10;59.00;;;7.65;56.79;100857.34;4990538;28;20191;-82
2022/02/24 09:08:49;;;;;;;9.85;4.75;;;7.30;57.80;;;7.77;56.25;100854.00;4958936;29;20196;-84
2022/02/24 09:11:18;;;;;;;5.88;3.78;;;7.50;56.60;;;7.60;56.55;100843.59;4963969;28;20269;-82
2022/02/24 09:13:46;;;;;;;12.07;3.53;;;7.40;54.90;;;7.62;56.46;100841.53;4962753;28;20195;-83
2022/02/24 09:16:17;;;;;;;9.30;4.15;;;7.40;53.70;;;7.81;56.21;100835.59;4975491;28;20196;-80
2022/02/24 09:18:47;;;;;;;8.02;3.22;;;7.50;53.70;;;7.94;55.72;100834.97;4994271;28;20216;-81
2022/02/24 09:21:16;;;;;;;8.60;3.38;;;7.70;53.20;;;7.85;56.02;100826.13;4986059;28;20239;-82
2022/02/24 09:23:46;;;;;;;8.20;3.45;;;7.70;52.10;;;7.88;56.22;100831.16;4968693;28;20192;-82
2022/02/24 09:26:14;;;;;;;8.70;3.45;;;7.70;57.40;;;8.05;56.01;100827.25;4963795;29;20200;-84
2022/02/24 09:28:44;;;;;;;9.57;4.70;;;7.80;50.90;;;8.13;55.49;100829.81;4946989;29;20192;-85
2022/02/24 09:31:13;;;;;;;6.30;3.70;;;7.90;50.30;;;8.23;55.62;100818.75;4955657;28;20223;-83
2022/02/24 09:33:44;;;;;;;9.40;4.30;;;7.90;49.00;;;8.25;55.28;100822.94;4978038;28;20191;-84
2022/02/24 09:36:14;;;;;;;10.77;3.13;;;8.00;48.10;;;8.40;55.44;100822.09;4991409;28;20199;-83
2022/02/24 09:38:43;;;;;;;5.55;3.30;;;8.10;47.80;;;8.45;55.31;100819.66;5006124;28;20210;-85
2022/02/24 09:41:13;;;;;;;6.30;3.28;;;8.20;47.20;;;8.79;54.89;100809.03;4988103;28;20824;-84
2022/02/24 09:43:44;;;;;;;9.23;3.75;;;8.40;47.70;;;8.81;54.64;100812.38;4980334;28;20199;-83
2022/02/24 09:46:36;;;;;;;6.00;3.15;;;8.50;46.30;;;8.56;54.65;100803.84;4967955;28;20187;-86
2022/02/24 09:49:10;;;;;;;8.27;4.10;;;8.40;44.10;;;8.56;54.96;100792.22;4984323;28;20187;-84
2022/02/24 09:51:43;;;;;;;10.10;4.30;;;8.30;43.60;;;8.67;54.90;100783.59;4967802;28;20226;-83
2022/02/24 09:54:13;;;;;;;10.55;3.78;;;8.40;43.40;;;8.57;55.07;100783.91;4973554;28;20190;-82
2022/02/24 09:56:46;;;;;;;4.50;3.08;;;8.40;43.80;;;8.74;55.05;100773.72;4986869;28;20393;-81
2022/02/24 09:59:16;;;;;;;6.30;3.58;;;8.40;42.80;;;8.98;54.50;100767.91;4989367;28;20253;-80
2022/02/24 10:01:47;;;;;;;7.30;3.00;;;8.60;42.90;;;9.04;54.27;100769.84;4970044;28;20228;-83
2022/02/24 10:04:20;;;;;;;5.93;3.58;;;8.80;42.20;;;9.04;54.33;100763.59;4980068;28;20184;-84
2022/02/24 10:06:49;;;;;;;7.45;3.05;;;8.80;41.10;;;9.10;54.04;100754.72;4969068;28;20692;-84
2022/02/24 10:09:30;;;;;;;6.50;3.22;;;8.90;50.40;;;9.11;54.14;100754.50;4974997;28;20187;-84
2022/02/24 10:12:07;;;;;;;8.80;3.65;;;8.90;39.70;;;9.16;53.91;100748.53;4967256;28;20223;-84
2022/02/24 10:14:38;;;;;;;11.10;4.82;;;8.90;40.10;;;9.25;54.27;100743.81;4973232;28;20266;-83
2022/02/24 10:17:08;;;;;;;6.57;3.80;;;9.00;39.20;;;9.27;54.21;100730.94;5001814;28;20181;-84
2022/02/24 10:19:41;;;;;;;8.68;5.10;;;9.00;38.30;;;9.30;53.99;100727.84;5004178;28;20250;-84
2022/02/24 10:22:18;;;;;;;7.20;4.45;;;9.00;37.60;;;9.18;53.94;100721.34;4984294;28;20276;-82
2022/02/24 10:24:59;;;;;;;5.80;3.90;;;9.00;36.30;;;9.37;54.20;100726.03;4996679;28;20179;-87
2022/02/24 10:27:30;;;;;;;9.98;4.53;;;9.10;36.90;;;9.58;54.22;100723.25;4982220;28;20167;-82
2022/02/24 10:30:20;;;;;;;8.52;3.65;;;9.20;37.40;;;9.43;54.03;100714.44;4964011;28;20195;-82
2022/02/24 10:32:52;;;;;;;9.77;4.93;;;9.20;35.40;;;9.66;53.76;100714.16;4953321;29;20199;-82
2022/02/24 10:35:26;;;;;;;7.93;5.40;;;9.30;35.80;;;9.57;53.61;100710.78;4980914;28;20219;-83